Terminal Aerodrome Forecast
Issued by NWS Shreveport, LA

Home | Current Version | Previous Version | Text Only | Print | Product List | Glossary On
Versions: 1 2 3 4 5 6 7 8 9 10 11 12 13
800
FTUS44 KSHV 232336
TAFSHV
TAF
KSHV 232336Z 2400/2424 19006KT P6SM VCTS BKN060CB BKN250
      TEMPO 2400/2401 VRB15G25KT 5SM TSRA BKN045CB
     FM240200 17003KT P6SM FEW050 SCT250
     FM241400 17004KT P6SM SCT040 OVC150
     FM241800 26005KT P6SM FEW060 OVC250
     FM242100 09006KT P6SM VCTS BKN050CB BKN250=

USA.gov is the U.S. government's official web portal to all federal, state and local government web resources and services.